Cedar Hammock, Florida
Current Conditions -  °F | °C
As of 2:53 AM on Thursday 25 Dec 2014 (Local Time) from KSRQ Reporting Station
Broken Clouds Broken Clouds  
Wind Chill: 65°   Ceiling: 6500
Heat Index: 65°   Visibility: 10mi
Dew Point: 61°   Wind: 9mph
Humidity: 87%   Direction: 310°NW
Pressure: 30"   Gusts: NA
Location:  27.4818°N, 82.584°W
Report Text: KSRQ 250753Z 31008KT 10SM BKN065 18/16 A3000 RMK AO2 SLP159 T01830161
Loading
Personal Weather Stations






























Interactive Weather Map New forecast layout! Learn more

10-Day Weather Forecast

Advertisements
Track Severe Weather on mobile